Terminal Aerodrome Forecast
Issued by NWS Albuquerque, NM

Current Version | Previous Version | Text Only | Print | Product List | Glossary On
Versions: 1 2 3 4 5 6 7 8 9 10 11 12 13 14 15
000
FTUS45 KABQ 201700
TAFABQ
TAF
KABQ 201738Z 2018/2118 28005KT P6SM SCT070 BKN200
     FM202000 29007KT P6SM SCT200
     FM210400 35005KT P6SM BKN150=

USA.gov is the U.S. government's official web portal to all federal, state and local government web resources and services.